sensor_id;sensor_type;location;lat;lon;timestamp;P1;durP1;ratioP1;P2;durP2;ratioP2
61038;SDS011;46919;45.816;3.104;2023-02-05T00:01:55;11.00;;;7.95;;
61038;SDS011;46919;45.816;3.104;2023-02-05T00:04:21;10.25;;;7.50;;
61038;SDS011;46919;45.816;3.104;2023-02-05T00:06:46;8.30;;;7.35;;
61038;SDS011;46919;45.816;3.104;2023-02-05T00:09:11;9.73;;;7.13;;
61038;SDS011;46919;45.816;3.104;2023-02-05T00:11:37;11.88;;;7.93;;
61038;SDS011;46919;45.816;3.104;2023-02-05T00:14:02;11.13;;;7.60;;
61038;SDS011;46919;45.816;3.104;2023-02-05T00:16:28;9.65;;;7.00;;
61038;SDS011;46919;45.816;3.104;2023-02-05T00:18:55;10.95;;;7.68;;
61038;SDS011;46919;45.816;3.104;2023-02-05T00:21:21;10.73;;;8.48;;
61038;SDS011;46919;45.816;3.104;2023-02-05T00:23:47;11.52;;;7.65;;
61038;SDS011;46919;45.816;3.104;2023-02-05T00:26:13;11.57;;;7.93;;
61038;SDS011;46919;45.816;3.104;2023-02-05T00:28:38;10.63;;;7.75;;
61038;SDS011;46919;45.816;3.104;2023-02-05T00:31:09;11.48;;;8.57;;
61038;SDS011;46919;45.816;3.104;2023-02-05T00:33:36;12.80;;;8.70;;
61038;SDS011;46919;45.816;3.104;2023-02-05T00:36:02;11.75;;;8.40;;
61038;SDS011;46919;45.816;3.104;2023-02-05T00:38:28;12.60;;;8.65;;
61038;SDS011;46919;45.816;3.104;2023-02-05T00:40:53;11.27;;;7.93;;
61038;SDS011;46919;45.816;3.104;2023-02-05T00:43:18;13.65;;;8.90;;
61038;SDS011;46919;45.816;3.104;2023-02-05T00:45:44;13.30;;;8.93;;
61038;SDS011;46919;45.816;3.104;2023-02-05T00:48:09;13.05;;;8.93;;
61038;SDS011;46919;45.816;3.104;2023-02-05T00:50:35;13.43;;;9.35;;
61038;SDS011;46919;45.816;3.104;2023-02-05T00:53:00;11.05;;;7.82;;
61038;SDS011;46919;45.816;3.104;2023-02-05T00:55:26;10.07;;;8.63;;
61038;SDS011;46919;45.816;3.104;2023-02-05T00:57:52;12.20;;;8.55;;
61038;SDS011;46919;45.816;3.104;2023-02-05T01:00:18;10.70;;;8.25;;
61038;SDS011;46919;45.816;3.104;2023-02-05T01:02:43;12.95;;;8.80;;
61038;SDS011;46919;45.816;3.104;2023-02-05T01:05:09;10.60;;;8.50;;
61038;SDS011;46919;45.816;3.104;2023-02-05T01:07:34;10.02;;;7.75;;
61038;SDS011;46919;45.816;3.104;2023-02-05T01:10:00;9.85;;;7.78;;
61038;SDS011;46919;45.816;3.104;2023-02-05T01:12:26;10.57;;;7.75;;
61038;SDS011;46919;45.816;3.104;2023-02-05T01:14:51;10.35;;;7.72;;
61038;SDS011;46919;45.816;3.104;2023-02-05T01:17:18;12.18;;;8.68;;
61038;SDS011;46919;45.816;3.104;2023-02-05T01:19:43;9.90;;;8.60;;
61038;SDS011;46919;45.816;3.104;2023-02-05T01:22:09;12.63;;;8.50;;
61038;SDS011;46919;45.816;3.104;2023-02-05T01:24:35;10.80;;;8.40;;
61038;SDS011;46919;45.816;3.104;2023-02-05T01:27:01;10.65;;;8.25;;
61038;SDS011;46919;45.816;3.104;2023-02-05T01:29:26;10.18;;;8.27;;
61038;SDS011;46919;45.816;3.104;2023-02-05T01:31:52;10.95;;;7.60;;
61038;SDS011;46919;45.816;3.104;2023-02-05T01:34:18;9.95;;;7.78;;
61038;SDS011;46919;45.816;3.104;2023-02-05T01:36:43;10.10;;;7.88;;
61038;SDS011;46919;45.816;3.104;2023-02-05T01:39:09;10.57;;;7.38;;
61038;SDS011;46919;45.816;3.104;2023-02-05T01:41:34;9.80;;;7.18;;
61038;SDS011;46919;45.816;3.104;2023-02-05T01:44:19;9.45;;;7.03;;
61038;SDS011;46919;45.816;3.104;2023-02-05T01:46:49;9.38;;;6.97;;
61038;SDS011;46919;45.816;3.104;2023-02-05T01:49:18;8.43;;;6.68;;
61038;SDS011;46919;45.816;3.104;2023-02-05T01:51:49;9.10;;;7.20;;
61038;SDS011;46919;45.816;3.104;2023-02-05T01:54:16;12.60;;;7.60;;
61038;SDS011;46919;45.816;3.104;2023-02-05T01:57:04;10.30;;;8.00;;
61038;SDS011;46919;45.816;3.104;2023-02-05T01:59:33;11.63;;;8.07;;
61038;SDS011;46919;45.816;3.104;2023-02-05T02:02:01;10.65;;;7.07;;
61038;SDS011;46919;45.816;3.104;2023-02-05T02:07:06;9.75;;;7.25;;
61038;SDS011;46919;45.816;3.104;2023-02-05T02:09:34;10.52;;;7.97;;
61038;SDS011;46919;45.816;3.104;2023-02-05T02:12:00;11.52;;;8.10;;
61038;SDS011;46919;45.816;3.104;2023-02-05T02:14:27;11.90;;;7.85;;
61038;SDS011;46919;45.816;3.104;2023-02-05T02:16:56;13.02;;;7.15;;
61038;SDS011;46919;45.816;3.104;2023-02-05T02:19:45;9.23;;;7.10;;
61038;SDS011;46919;45.816;3.104;2023-02-05T02:22:24;10.02;;;6.97;;
61038;SDS011;46919;45.816;3.104;2023-02-05T02:27:52;10.57;;;8.15;;
61038;SDS011;46919;45.816;3.104;2023-02-05T02:33:29;9.80;;;7.20;;
61038;SDS011;46919;45.816;3.104;2023-02-05T02:36:18;10.00;;;7.32;;
61038;SDS011;46919;45.816;3.104;2023-02-05T02:38:51;11.57;;;7.63;;
61038;SDS011;46919;45.816;3.104;2023-02-05T02:43:49;9.90;;;7.30;;
61038;SDS011;46919;45.816;3.104;2023-02-05T02:47:02;9.23;;;7.10;;
61038;SDS011;46919;45.816;3.104;2023-02-05T02:49:15;11.55;;;7.85;;
61038;SDS011;46919;45.816;3.104;2023-02-05T02:51:48;9.70;;;7.72;;
61038;SDS011;46919;45.816;3.104;2023-02-05T02:54:16;9.98;;;7.32;;
61038;SDS011;46919;45.816;3.104;2023-02-05T02:56:45;9.20;;;7.25;;
61038;SDS011;46919;45.816;3.104;2023-02-05T02:59:16;9.48;;;7.10;;
61038;SDS011;46919;45.816;3.104;2023-02-05T03:01:45;11.75;;;7.40;;
61038;SDS011;46919;45.816;3.104;2023-02-05T03:04:16;11.25;;;7.82;;
61038;SDS011;46919;45.816;3.104;2023-02-05T03:06:47;11.25;;;7.65;;
61038;SDS011;46919;45.816;3.104;2023-02-05T03:12:02;14.00;;;8.02;;
61038;SDS011;46919;45.816;3.104;2023-02-05T03:14:28;11.30;;;7.85;;
61038;SDS011;46919;45.816;3.104;2023-02-05T03:16:54;12.13;;;7.97;;
61038;SDS011;46919;45.816;3.104;2023-02-05T03:19:20;12.63;;;8.48;;
61038;SDS011;46919;45.816;3.104;2023-02-05T03:21:47;10.55;;;7.78;;
61038;SDS011;46919;45.816;3.104;2023-02-05T03:24:18;10.75;;;7.95;;
61038;SDS011;46919;45.816;3.104;2023-02-05T03:26:44;10.82;;;8.18;;
61038;SDS011;46919;45.816;3.104;2023-02-05T03:29:10;10.73;;;8.07;;
61038;SDS011;46919;45.816;3.104;2023-02-05T03:37:15;11.27;;;8.23;;
61038;SDS011;46919;45.816;3.104;2023-02-05T03:40:03;12.50;;;8.60;;
61038;SDS011;46919;45.816;3.104;2023-02-05T03:53:06;13.68;;;9.15;;
61038;SDS011;46919;45.816;3.104;2023-02-05T03:56:34;14.30;;;9.18;;
61038;SDS011;46919;45.816;3.104;2023-02-05T03:58:47;13.68;;;8.70;;
61038;SDS011;46919;45.816;3.104;2023-02-05T04:01:16;12.13;;;8.15;;
61038;SDS011;46919;45.816;3.104;2023-02-05T04:03:42;14.05;;;9.25;;
61038;SDS011;46919;45.816;3.104;2023-02-05T04:06:07;12.38;;;8.65;;
61038;SDS011;46919;45.816;3.104;2023-02-05T04:08:33;15.18;;;8.90;;
61038;SDS011;46919;45.816;3.104;2023-02-05T04:10:58;13.80;;;8.80;;
61038;SDS011;46919;45.816;3.104;2023-02-05T04:13:24;12.38;;;8.77;;
61038;SDS011;46919;45.816;3.104;2023-02-05T04:15:49;13.25;;;8.55;;
61038;SDS011;46919;45.816;3.104;2023-02-05T04:18:15;12.48;;;8.20;;
61038;SDS011;46919;45.816;3.104;2023-02-05T04:20:41;13.57;;;8.60;;
61038;SDS011;46919;45.816;3.104;2023-02-05T04:23:06;12.18;;;8.77;;
61038;SDS011;46919;45.816;3.104;2023-02-05T04:25:32;11.88;;;8.43;;
61038;SDS011;46919;45.816;3.104;2023-02-05T04:27:57;11.50;;;7.93;;
61038;SDS011;46919;45.816;3.104;2023-02-05T04:30:23;13.15;;;8.98;;
61038;SDS011;46919;45.816;3.104;2023-02-05T04:32:48;11.07;;;7.47;;
61038;SDS011;46919;45.816;3.104;2023-02-05T04:35:14;12.13;;;8.98;;
61038;SDS011;46919;45.816;3.104;2023-02-05T04:37:39;11.80;;;8.38;;
61038;SDS011;46919;45.816;3.104;2023-02-05T04:40:05;13.27;;;8.05;;
61038;SDS011;46919;45.816;3.104;2023-02-05T04:42:31;13.23;;;8.52;;
61038;SDS011;46919;45.816;3.104;2023-02-05T04:44:56;12.13;;;7.32;;
61038;SDS011;46919;45.816;3.104;2023-02-05T04:47:22;10.43;;;7.82;;
61038;SDS011;46919;45.816;3.104;2023-02-05T04:49:47;13.05;;;8.25;;
61038;SDS011;46919;45.816;3.104;2023-02-05T04:52:12;12.40;;;7.82;;
61038;SDS011;46919;45.816;3.104;2023-02-05T04:54:38;11.77;;;7.72;;
61038;SDS011;46919;45.816;3.104;2023-02-05T04:57:03;9.82;;;7.10;;
61038;SDS011;46919;45.816;3.104;2023-02-05T04:59:29;9.27;;;7.00;;
61038;SDS011;46919;45.816;3.104;2023-02-05T05:01:55;11.27;;;7.43;;
61038;SDS011;46919;45.816;3.104;2023-02-05T05:04:21;10.55;;;7.32;;
61038;SDS011;46919;45.816;3.104;2023-02-05T05:06:47;10.60;;;7.30;;
61038;SDS011;46919;45.816;3.104;2023-02-05T05:09:12;11.95;;;7.93;;
61038;SDS011;46919;45.816;3.104;2023-02-05T05:11:38;9.50;;;7.45;;
61038;SDS011;46919;45.816;3.104;2023-02-05T05:14:04;9.73;;;6.97;;
61038;SDS011;46919;45.816;3.104;2023-02-05T05:16:29;10.68;;;7.03;;
61038;SDS011;46919;45.816;3.104;2023-02-05T05:18:54;11.18;;;7.72;;
61038;SDS011;46919;45.816;3.104;2023-02-05T05:21:20;11.02;;;7.07;;
61038;SDS011;46919;45.816;3.104;2023-02-05T05:23:46;12.80;;;7.68;;
61038;SDS011;46919;45.816;3.104;2023-02-05T05:26:11;9.45;;;7.30;;
61038;SDS011;46919;45.816;3.104;2023-02-05T05:28:37;8.65;;;6.72;;
61038;SDS011;46919;45.816;3.104;2023-02-05T05:31:06;8.73;;;6.72;;
61038;SDS011;46919;45.816;3.104;2023-02-05T05:33:32;10.05;;;6.90;;
61038;SDS011;46919;45.816;3.104;2023-02-05T05:35:58;10.23;;;7.72;;
61038;SDS011;46919;45.816;3.104;2023-02-05T05:38:23;10.20;;;7.32;;
61038;SDS011;46919;45.816;3.104;2023-02-05T05:40:48;9.15;;;6.93;;
61038;SDS011;46919;45.816;3.104;2023-02-05T05:43:32;11.00;;;7.93;;
61038;SDS011;46919;45.816;3.104;2023-02-05T05:46:34;10.27;;;7.43;;
61038;SDS011;46919;45.816;3.104;2023-02-05T05:49:00;9.88;;;7.28;;
61038;SDS011;46919;45.816;3.104;2023-02-05T05:51:27;10.73;;;7.50;;
61038;SDS011;46919;45.816;3.104;2023-02-05T05:53:53;10.48;;;7.38;;
61038;SDS011;46919;45.816;3.104;2023-02-05T05:56:19;10.57;;;7.78;;
61038;SDS011;46919;45.816;3.104;2023-02-05T05:58:44;11.30;;;8.15;;
61038;SDS011;46919;45.816;3.104;2023-02-05T06:01:10;11.13;;;7.47;;
61038;SDS011;46919;45.816;3.104;2023-02-05T06:03:37;12.23;;;8.07;;
61038;SDS011;46919;45.816;3.104;2023-02-05T06:06:03;11.07;;;7.80;;
61038;SDS011;46919;45.816;3.104;2023-02-05T06:08:30;11.48;;;7.22;;
61038;SDS011;46919;45.816;3.104;2023-02-05T06:10:56;11.27;;;7.72;;
61038;SDS011;46919;45.816;3.104;2023-02-05T06:13:21;12.32;;;8.57;;
61038;SDS011;46919;45.816;3.104;2023-02-05T06:15:47;16.40;;;9.98;;
61038;SDS011;46919;45.816;3.104;2023-02-05T06:18:13;13.68;;;8.90;;
61038;SDS011;46919;45.816;3.104;2023-02-05T06:20:39;12.25;;;8.18;;
61038;SDS011;46919;45.816;3.104;2023-02-05T06:23:05;11.93;;;8.23;;
61038;SDS011;46919;45.816;3.104;2023-02-05T06:25:30;12.30;;;8.38;;
61038;SDS011;46919;45.816;3.104;2023-02-05T06:27:55;13.45;;;8.82;;
61038;SDS011;46919;45.816;3.104;2023-02-05T06:30:21;12.63;;;8.30;;
61038;SDS011;46919;45.816;3.104;2023-02-05T06:32:47;12.82;;;8.63;;
61038;SDS011;46919;45.816;3.104;2023-02-05T06:35:12;14.68;;;8.55;;
61038;SDS011;46919;45.816;3.104;2023-02-05T06:37:37;12.35;;;8.75;;
61038;SDS011;46919;45.816;3.104;2023-02-05T06:40:03;17.00;;;9.73;;
61038;SDS011;46919;45.816;3.104;2023-02-05T06:42:29;13.32;;;9.13;;
61038;SDS011;46919;45.816;3.104;2023-02-05T06:44:54;15.40;;;9.82;;
61038;SDS011;46919;45.816;3.104;2023-02-05T06:47:20;13.00;;;9.23;;
61038;SDS011;46919;45.816;3.104;2023-02-05T06:49:45;14.88;;;9.60;;
61038;SDS011;46919;45.816;3.104;2023-02-05T06:52:11;12.95;;;9.02;;
61038;SDS011;46919;45.816;3.104;2023-02-05T06:54:36;15.40;;;9.80;;
61038;SDS011;46919;45.816;3.104;2023-02-05T06:57:02;14.35;;;9.32;;
61038;SDS011;46919;45.816;3.104;2023-02-05T06:59:28;14.95;;;9.93;;
61038;SDS011;46919;45.816;3.104;2023-02-05T07:01:54;14.88;;;9.90;;
61038;SDS011;46919;45.816;3.104;2023-02-05T07:04:19;15.55;;;10.27;;
61038;SDS011;46919;45.816;3.104;2023-02-05T07:06:45;13.73;;;9.88;;
61038;SDS011;46919;45.816;3.104;2023-02-05T07:09:10;14.68;;;9.57;;
61038;SDS011;46919;45.816;3.104;2023-02-05T07:11:35;15.02;;;9.70;;
61038;SDS011;46919;45.816;3.104;2023-02-05T07:14:01;13.38;;;9.38;;
61038;SDS011;46919;45.816;3.104;2023-02-05T07:16:28;15.93;;;10.40;;
61038;SDS011;46919;45.816;3.104;2023-02-05T07:18:54;15.00;;;9.50;;
61038;SDS011;46919;45.816;3.104;2023-02-05T07:21:19;17.35;;;10.80;;
61038;SDS011;46919;45.816;3.104;2023-02-05T07:23:45;17.02;;;10.55;;
61038;SDS011;46919;45.816;3.104;2023-02-05T07:26:11;18.15;;;11.27;;
61038;SDS011;46919;45.816;3.104;2023-02-05T07:28:38;16.42;;;11.32;;
61038;SDS011;46919;45.816;3.104;2023-02-05T07:31:05;14.90;;;10.13;;
61038;SDS011;46919;45.816;3.104;2023-02-05T07:33:32;17.85;;;10.23;;
61038;SDS011;46919;45.816;3.104;2023-02-05T07:36:01;13.98;;;10.23;;
61038;SDS011;46919;45.816;3.104;2023-02-05T07:38:31;15.43;;;10.45;;
61038;SDS011;46919;45.816;3.104;2023-02-05T07:40:56;15.35;;;10.63;;
61038;SDS011;46919;45.816;3.104;2023-02-05T07:43:22;16.42;;;11.20;;
61038;SDS011;46919;45.816;3.104;2023-02-05T07:45:54;18.20;;;11.30;;
61038;SDS011;46919;45.816;3.104;2023-02-05T07:48:24;16.75;;;11.43;;
61038;SDS011;46919;45.816;3.104;2023-02-05T07:50:50;17.77;;;12.55;;
61038;SDS011;46919;45.816;3.104;2023-02-05T07:53:15;17.20;;;11.38;;
61038;SDS011;46919;45.816;3.104;2023-02-05T07:55:41;17.98;;;10.90;;
61038;SDS011;46919;45.816;3.104;2023-02-05T07:58:06;17.25;;;11.50;;
61038;SDS011;46919;45.816;3.104;2023-02-05T08:00:32;15.70;;;11.38;;
61038;SDS011;46919;45.816;3.104;2023-02-05T08:02:57;18.13;;;11.57;;
61038;SDS011;46919;45.816;3.104;2023-02-05T08:05:23;17.10;;;11.43;;
61038;SDS011;46919;45.816;3.104;2023-02-05T08:07:48;18.20;;;11.73;;
61038;SDS011;46919;45.816;3.104;2023-02-05T08:10:14;16.92;;;11.73;;
61038;SDS011;46919;45.816;3.104;2023-02-05T08:12:39;20.13;;;12.30;;
61038;SDS011;46919;45.816;3.104;2023-02-05T08:15:05;20.70;;;13.18;;
61038;SDS011;46919;45.816;3.104;2023-02-05T08:17:31;18.23;;;12.57;;
61038;SDS011;46919;45.816;3.104;2023-02-05T08:19:56;19.58;;;13.32;;
61038;SDS011;46919;45.816;3.104;2023-02-05T08:22:23;18.15;;;12.80;;
61038;SDS011;46919;45.816;3.104;2023-02-05T08:24:49;19.63;;;13.30;;
61038;SDS011;46919;45.816;3.104;2023-02-05T08:27:14;17.48;;;12.93;;
61038;SDS011;46919;45.816;3.104;2023-02-05T08:29:40;17.33;;;12.27;;
61038;SDS011;46919;45.816;3.104;2023-02-05T08:32:05;21.63;;;12.52;;
61038;SDS011;46919;45.816;3.104;2023-02-05T08:34:31;19.05;;;12.32;;
61038;SDS011;46919;45.816;3.104;2023-02-05T08:36:58;17.73;;;13.50;;
61038;SDS011;46919;45.816;3.104;2023-02-05T08:39:23;17.33;;;13.00;;
61038;SDS011;46919;45.816;3.104;2023-02-05T08:41:50;18.45;;;13.27;;
61038;SDS011;46919;45.816;3.104;2023-02-05T08:44:15;21.90;;;13.27;;
61038;SDS011;46919;45.816;3.104;2023-02-05T08:46:41;20.90;;;12.98;;
61038;SDS011;46919;45.816;3.104;2023-02-05T08:49:06;20.80;;;12.35;;
61038;SDS011;46919;45.816;3.104;2023-02-05T08:51:31;19.85;;;13.70;;
61038;SDS011;46919;45.816;3.104;2023-02-05T08:53:59;17.55;;;12.77;;
61038;SDS011;46919;45.816;3.104;2023-02-05T08:56:25;21.02;;;13.63;;
61038;SDS011;46919;45.816;3.104;2023-02-05T08:58:50;18.85;;;12.88;;
61038;SDS011;46919;45.816;3.104;2023-02-05T09:01:16;18.52;;;12.68;;
61038;SDS011;46919;45.816;3.104;2023-02-05T09:03:42;19.88;;;12.02;;
61038;SDS011;46919;45.816;3.104;2023-02-05T09:06:09;17.88;;;12.65;;
61038;SDS011;46919;45.816;3.104;2023-02-05T09:08:37;21.00;;;12.93;;
61038;SDS011;46919;45.816;3.104;2023-02-05T09:11:04;17.52;;;12.57;;
61038;SDS011;46919;45.816;3.104;2023-02-05T09:13:30;22.17;;;13.40;;
61038;SDS011;46919;45.816;3.104;2023-02-05T09:15:55;18.13;;;13.27;;
61038;SDS011;46919;45.816;3.104;2023-02-05T09:18:21;22.23;;;14.70;;
61038;SDS011;46919;45.816;3.104;2023-02-05T09:20:47;23.33;;;14.30;;
61038;SDS011;46919;45.816;3.104;2023-02-05T09:23:13;17.35;;;12.70;;
61038;SDS011;46919;45.816;3.104;2023-02-05T09:25:40;17.30;;;12.73;;
61038;SDS011;46919;45.816;3.104;2023-02-05T09:28:07;21.75;;;14.50;;
61038;SDS011;46919;45.816;3.104;2023-02-05T09:30:34;21.55;;;12.93;;
61038;SDS011;46919;45.816;3.104;2023-02-05T09:33:00;18.48;;;14.02;;
61038;SDS011;46919;45.816;3.104;2023-02-05T09:35:26;21.13;;;14.05;;
61038;SDS011;46919;45.816;3.104;2023-02-05T09:37:51;23.27;;;15.93;;
61038;SDS011;46919;45.816;3.104;2023-02-05T09:40:17;19.13;;;13.88;;
61038;SDS011;46919;45.816;3.104;2023-02-05T09:42:52;22.33;;;13.88;;
61038;SDS011;46919;45.816;3.104;2023-02-05T09:48:13;17.60;;;13.10;;
61038;SDS011;46919;45.816;3.104;2023-02-05T09:50:46;18.17;;;12.77;;
61038;SDS011;46919;45.816;3.104;2023-02-05T09:53:14;16.63;;;12.15;;
61038;SDS011;46919;45.816;3.104;2023-02-05T09:55:43;16.88;;;12.82;;
61038;SDS011;46919;45.816;3.104;2023-02-05T09:58:13;17.38;;;12.40;;
61038;SDS011;46919;45.816;3.104;2023-02-05T10:00:45;21.80;;;14.15;;
61038;SDS011;46919;45.816;3.104;2023-02-05T10:08:55;19.90;;;13.15;;
61038;SDS011;46919;45.816;3.104;2023-02-05T10:19:41;23.73;;;13.18;;
61038;SDS011;46919;45.816;3.104;2023-02-05T10:32:59;17.95;;;12.43;;
61038;SDS011;46919;45.816;3.104;2023-02-05T10:38:15;13.48;;;9.65;;
61038;SDS011;46919;45.816;3.104;2023-02-05T10:40:45;13.88;;;10.20;;
61038;SDS011;46919;45.816;3.104;2023-02-05T10:43:15;12.55;;;9.68;;
61038;SDS011;46919;45.816;3.104;2023-02-05T10:46:00;16.88;;;9.45;;
61038;SDS011;46919;45.816;3.104;2023-02-05T10:48:32;12.98;;;8.65;;
61038;SDS011;46919;45.816;3.104;2023-02-05T10:51:08;13.35;;;8.68;;
61038;SDS011;46919;45.816;3.104;2023-02-05T10:53:38;9.35;;;7.53;;
61038;SDS011;46919;45.816;3.104;2023-02-05T10:56:04;11.80;;;7.22;;
61038;SDS011;46919;45.816;3.104;2023-02-05T10:58:45;7.78;;;6.60;;
61038;SDS011;46919;45.816;3.104;2023-02-05T11:06:32;6.72;;;5.05;;
61038;SDS011;46919;45.816;3.104;2023-02-05T11:09:02;7.20;;;5.18;;
61038;SDS011;46919;45.816;3.104;2023-02-05T11:11:30;7.65;;;5.38;;
61038;SDS011;46919;45.816;3.104;2023-02-05T11:13:58;10.13;;;5.60;;
61038;SDS011;46919;45.816;3.104;2023-02-05T11:16:41;5.60;;;3.72;;
61038;SDS011;46919;45.816;3.104;2023-02-05T11:19:21;5.30;;;3.97;;
61038;SDS011;46919;45.816;3.104;2023-02-05T11:24:31;4.38;;;2.88;;
61038;SDS011;46919;45.816;3.104;2023-02-05T11:29:43;3.83;;;2.33;;
61038;SDS011;46919;45.816;3.104;2023-02-05T11:32:18;4.45;;;3.30;;
61038;SDS011;46919;45.816;3.104;2023-02-05T11:34:44;3.03;;;2.72;;
61038;SDS011;46919;45.816;3.104;2023-02-05T11:37:12;4.43;;;2.60;;
61038;SDS011;46919;45.816;3.104;2023-02-05T11:39:41;3.78;;;2.92;;
61038;SDS011;46919;45.816;3.104;2023-02-05T11:42:17;5.93;;;3.10;;
61038;SDS011;46919;45.816;3.104;2023-02-05T11:44:50;3.80;;;2.67;;
61038;SDS011;46919;45.816;3.104;2023-02-05T11:47:23;2.72;;;2.15;;
61038;SDS011;46919;45.816;3.104;2023-02-05T11:49:54;4.43;;;2.72;;
61038;SDS011;46919;45.816;3.104;2023-02-05T11:52:27;5.28;;;2.60;;
61038;SDS011;46919;45.816;3.104;2023-02-05T11:54:57;5.15;;;2.88;;
61038;SDS011;46919;45.816;3.104;2023-02-05T11:57:56;4.47;;;3.38;;
61038;SDS011;46919;45.816;3.104;2023-02-05T12:00:22;5.30;;;3.03;;
61038;SDS011;46919;45.816;3.104;2023-02-05T12:02:48;5.50;;;3.63;;
61038;SDS011;46919;45.816;3.104;2023-02-05T12:05:18;3.67;;;2.70;;
61038;SDS011;46919;45.816;3.104;2023-02-05T12:13:05;4.05;;;3.28;;
61038;SDS011;46919;45.816;3.104;2023-02-05T12:27:41;4.25;;;2.40;;
61038;SDS011;46919;45.816;3.104;2023-02-05T12:32:32;2.53;;;2.03;;
61038;SDS011;46919;45.816;3.104;2023-02-05T12:43:01;5.95;;;3.25;;
61038;SDS011;46919;45.816;3.104;2023-02-05T12:56:48;4.25;;;2.55;;
61038;SDS011;46919;45.816;3.104;2023-02-05T12:59:27;6.55;;;3.67;;
61038;SDS011;46919;45.816;3.104;2023-02-05T13:07:34;2.95;;;2.08;;
61038;SDS011;46919;45.816;3.104;2023-02-05T13:10:13;3.40;;;2.22;;
61038;SDS011;46919;45.816;3.104;2023-02-05T13:12:44;2.47;;;2.22;;
61038;SDS011;46919;45.816;3.104;2023-02-05T13:20:30;2.25;;;1.90;;
61038;SDS011;46919;45.816;3.104;2023-02-05T13:23:18;2.35;;;1.67;;
61038;SDS011;46919;45.816;3.104;2023-02-05T13:26:03;4.22;;;2.50;;
61038;SDS011;46919;45.816;3.104;2023-02-05T13:28:49;4.25;;;2.38;;
61038;SDS011;46919;45.816;3.104;2023-02-05T13:31:26;3.67;;;2.45;;
61038;SDS011;46919;45.816;3.104;2023-02-05T13:44:38;4.03;;;2.03;;
61038;SDS011;46919;45.816;3.104;2023-02-05T13:52:30;3.45;;;2.30;;
61038;SDS011;46919;45.816;3.104;2023-02-05T14:00:31;2.20;;;1.60;;
61038;SDS011;46919;45.816;3.104;2023-02-05T14:02:57;2.35;;;1.67;;
61038;SDS011;46919;45.816;3.104;2023-02-05T14:05:30;2.80;;;2.10;;
61038;SDS011;46919;45.816;3.104;2023-02-05T14:07:58;3.80;;;2.22;;
61038;SDS011;46919;45.816;3.104;2023-02-05T14:10:44;2.50;;;1.75;;
61038;SDS011;46919;45.816;3.104;2023-02-05T14:13:23;2.03;;;1.83;;
61038;SDS011;46919;45.816;3.104;2023-02-05T14:15:56;2.78;;;1.42;;
61038;SDS011;46919;45.816;3.104;2023-02-05T14:26:54;1.70;;;1.20;;
61038;SDS011;46919;45.816;3.104;2023-02-05T14:32:05;2.03;;;1.70;;
61038;SDS011;46919;45.816;3.104;2023-02-05T14:36:59;4.22;;;2.10;;
61038;SDS011;46919;45.816;3.104;2023-02-05T14:39:28;4.25;;;1.58;;
61038;SDS011;46919;45.816;3.104;2023-02-05T14:42:02;1.90;;;1.33;;
61038;SDS011;46919;45.816;3.104;2023-02-05T14:44:34;1.80;;;1.40;;
61038;SDS011;46919;45.816;3.104;2023-02-05T14:47:18;1.92;;;1.27;;
61038;SDS011;46919;45.816;3.104;2023-02-05T14:49:51;2.85;;;1.60;;
61038;SDS011;46919;45.816;3.104;2023-02-05T14:55:23;2.72;;;1.85;;
61038;SDS011;46919;45.816;3.104;2023-02-05T14:58:02;4.60;;;1.90;;
61038;SDS011;46919;45.816;3.104;2023-02-05T15:00:37;3.28;;;1.60;;
61038;SDS011;46919;45.816;3.104;2023-02-05T15:13:39;2.35;;;1.52;;
61038;SDS011;46919;45.816;3.104;2023-02-05T15:18:31;2.90;;;1.42;;
61038;SDS011;46919;45.816;3.104;2023-02-05T15:20:57;2.20;;;1.75;;
61038;SDS011;46919;45.816;3.104;2023-02-05T15:23:34;3.08;;;2.03;;
61038;SDS011;46919;45.816;3.104;2023-02-05T15:29:06;5.53;;;2.88;;
61038;SDS011;46919;45.816;3.104;2023-02-05T15:31:40;4.63;;;2.47;;
61038;SDS011;46919;45.816;3.104;2023-02-05T15:34:27;2.60;;;1.70;;
61038;SDS011;46919;45.816;3.104;2023-02-05T15:42:26;2.58;;;1.92;;
61038;SDS011;46919;45.816;3.104;2023-02-05T15:44:56;2.20;;;1.95;;
61038;SDS011;46919;45.816;3.104;2023-02-05T15:47:22;5.00;;;1.75;;
61038;SDS011;46919;45.816;3.104;2023-02-05T15:49:54;4.78;;;2.03;;
61038;SDS011;46919;45.816;3.104;2023-02-05T15:52:23;4.57;;;2.78;;
61038;SDS011;46919;45.816;3.104;2023-02-05T15:54:55;3.97;;;1.73;;
61038;SDS011;46919;45.816;3.104;2023-02-05T15:57:23;3.55;;;2.00;;
61038;SDS011;46919;45.816;3.104;2023-02-05T15:59:52;4.10;;;1.50;;
61038;SDS011;46919;45.816;3.104;2023-02-05T16:02:20;2.75;;;1.40;;
61038;SDS011;46919;45.816;3.104;2023-02-05T16:04:56;2.75;;;1.70;;
61038;SDS011;46919;45.816;3.104;2023-02-05T16:07:27;3.20;;;1.65;;
61038;SDS011;46919;45.816;3.104;2023-02-05T16:09:56;3.67;;;1.52;;
61038;SDS011;46919;45.816;3.104;2023-02-05T16:12:23;3.83;;;2.00;;
61038;SDS011;46919;45.816;3.104;2023-02-05T16:14:56;3.35;;;1.80;;
61038;SDS011;46919;45.816;3.104;2023-02-05T16:17:27;4.05;;;1.83;;
61038;SDS011;46919;45.816;3.104;2023-02-05T16:20:11;4.30;;;1.85;;
61038;SDS011;46919;45.816;3.104;2023-02-05T16:22:59;4.78;;;2.20;;
61038;SDS011;46919;45.816;3.104;2023-02-05T16:27:56;4.07;;;2.72;;
61038;SDS011;46919;45.816;3.104;2023-02-05T16:30:29;5.22;;;3.20;;
61038;SDS011;46919;45.816;3.104;2023-02-05T16:32:55;4.15;;;2.30;;
61038;SDS011;46919;45.816;3.104;2023-02-05T16:35:28;6.03;;;2.78;;
61038;SDS011;46919;45.816;3.104;2023-02-05T16:37:58;2.88;;;1.90;;
61038;SDS011;46919;45.816;3.104;2023-02-05T16:40:29;4.07;;;2.20;;
61038;SDS011;46919;45.816;3.104;2023-02-05T16:42:59;4.13;;;2.40;;
61038;SDS011;46919;45.816;3.104;2023-02-05T16:48:31;4.40;;;2.40;;
61038;SDS011;46919;45.816;3.104;2023-02-05T16:50:58;3.08;;;2.00;;
61038;SDS011;46919;45.816;3.104;2023-02-05T16:53:29;5.35;;;2.45;;
61038;SDS011;46919;45.816;3.104;2023-02-05T16:55:57;3.15;;;1.88;;
61038;SDS011;46919;45.816;3.104;2023-02-05T16:58:32;4.15;;;2.50;;
61038;SDS011;46919;45.816;3.104;2023-02-05T17:01:02;4.75;;;2.03;;
61038;SDS011;46919;45.816;3.104;2023-02-05T17:03:33;4.45;;;2.22;;
61038;SDS011;46919;45.816;3.104;2023-02-05T17:06:02;5.20;;;2.80;;
61038;SDS011;46919;45.816;3.104;2023-02-05T17:08:30;6.35;;;3.40;;
61038;SDS011;46919;45.816;3.104;2023-02-05T17:11:01;5.28;;;2.47;;
61038;SDS011;46919;45.816;3.104;2023-02-05T17:15:56;6.25;;;2.80;;
61038;SDS011;46919;45.816;3.104;2023-02-05T17:18:53;2.53;;;1.65;;
61038;SDS011;46919;45.816;3.104;2023-02-05T17:21:21;4.07;;;1.88;;
61038;SDS011;46919;45.816;3.104;2023-02-05T17:23:49;2.60;;;1.73;;
61038;SDS011;46919;45.816;3.104;2023-02-05T17:26:16;3.22;;;1.88;;
61038;SDS011;46919;45.816;3.104;2023-02-05T17:28:42;3.92;;;1.60;;
61038;SDS011;46919;45.816;3.104;2023-02-05T17:31:10;3.17;;;2.00;;
61038;SDS011;46919;45.816;3.104;2023-02-05T17:33:37;2.92;;;1.80;;
61038;SDS011;46919;45.816;3.104;2023-02-05T17:36:03;3.95;;;2.50;;
61038;SDS011;46919;45.816;3.104;2023-02-05T17:38:28;3.40;;;2.08;;
61038;SDS011;46919;45.816;3.104;2023-02-05T17:40:54;2.83;;;2.15;;
61038;SDS011;46919;45.816;3.104;2023-02-05T17:43:39;2.08;;;1.58;;
61038;SDS011;46919;45.816;3.104;2023-02-05T17:46:12;3.00;;;1.50;;
61038;SDS011;46919;45.816;3.104;2023-02-05T17:48:38;2.03;;;1.10;;
61038;SDS011;46919;45.816;3.104;2023-02-05T17:51:04;1.92;;;1.33;;
61038;SDS011;46919;45.816;3.104;2023-02-05T17:53:29;2.47;;;1.52;;
61038;SDS011;46919;45.816;3.104;2023-02-05T17:55:54;2.35;;;1.50;;
61038;SDS011;46919;45.816;3.104;2023-02-05T17:58:20;5.60;;;2.10;;